Time;durP1;ratioP1;P1;durP2;ratioP2;P2;SDS_P1;SDS_P2;PMS_P1;PMS_P2;Temp;Humidity;BMP_temperature;BMP_pressure;BME280_temperature;BME280_humidity;BME280_pressure;Samples;Min_cycle;Max_cycle;Signal;HPM_P1;HPM_P2
2021/07/30 00:00:37;;;;;;;;;;;;;;;23.44;63.33;100173.92;455300;117;921729;-71
2021/07/30 00:01:40;;;;;;;;;;;;;;;23.43;63.38;100166.70;454773;115;921587;-69
2021/07/30 00:02:44;;;;;;;;;;;;;;;23.42;63.42;100176.21;454476;115;922697;-71
2021/07/30 00:03:48;;;;;;;;;;;;;;;23.41;63.55;100174.55;454586;117;922730;-71
2021/07/30 00:04:53;;;;;;;;;;;;;;;23.42;63.58;100173.42;453269;115;922738;-72
2021/07/30 00:05:56;;;;;;;;;;;;;;;23.44;63.59;100173.92;454766;115;922669;-71
2021/07/30 00:07:00;;;;;;;;;;;;;;;23.44;63.60;100165.57;453130;117;922653;-73
2021/07/30 00:08:03;;;;;;;;;;;;;;;23.45;63.61;100164.45;454820;117;923125;-71
2021/07/30 00:09:07;;;;;;;;;;;;;;;23.47;63.60;100166.95;454812;116;922518;-73
2021/07/30 00:10:10;;;;;;;;;;;;;;;23.47;63.61;100165.00;453863;115;922748;-71
2021/07/30 00:11:14;;;;;;;;;;;;;;;23.49;63.59;100170.23;452426;115;921591;-73
2021/07/30 00:12:18;;;;;;;;;;;;;;;23.50;63.65;100160.76;454646;117;922747;-72
2021/07/30 00:13:22;;;;;;;;;;;;;;;23.52;63.68;100158.50;454433;117;922644;-73
2021/07/30 00:14:25;;;;;;;;;;;;;;;23.53;63.63;100152.63;454499;115;922637;-73
2021/07/30 00:15:28;;;;;;;;;;;;;;;23.55;63.59;100150.34;453410;115;922714;-73
2021/07/30 00:16:32;;;;;;;;;;;;;;;23.55;63.53;100150.34;454637;117;922652;-73
2021/07/30 00:17:35;;;;;;;;;;;;;;;23.55;63.53;100150.34;454813;115;924381;-73
2021/07/30 00:18:39;;;;;;;;;;;;;;;23.56;63.57;100149.21;454770;115;923160;-73
2021/07/30 00:19:42;;;;;;;;;;;;;;;23.56;63.57;100149.21;454008;115;922788;-73
2021/07/30 00:20:46;;;;;;;;;;;;;;;23.58;63.57;100149.73;454804;117;922709;-73
2021/07/30 00:21:49;;;;;;;;;;;;;;;23.58;63.61;100144.17;454993;117;922650;-72
2021/07/30 00:22:52;;;;;;;;;;;;;;;23.59;63.57;100144.99;454760;115;922696;-72
2021/07/30 00:23:56;;;;;;;;;;;;;;;23.60;63.54;100141.87;454995;117;922793;-72
2021/07/30 00:24:59;;;;;;;;;;;;;;;23.59;63.52;100134.69;454142;117;922723;-72
2021/07/30 00:26:02;;;;;;;;;;;;;;;23.60;63.56;100139.09;453465;117;921630;-73
2021/07/30 00:27:06;;;;;;;;;;;;;;;23.58;63.55;100144.17;453216;115;923219;-72
2021/07/30 00:28:09;;;;;;;;;;;;;;;23.57;63.60;100136.13;454252;115;923254;-73
2021/07/30 00:29:12;;;;;;;;;;;;;;;23.55;63.63;100141.99;455056;117;923122;-72
2021/07/30 00:30:16;;;;;;;;;;;;;;;23.53;63.67;100140.67;454811;117;922641;-72
2021/07/30 00:31:18;;;;;;;;;;;;;;;23.51;63.72;100138.19;454301;117;922761;-71
2021/07/30 00:32:22;;;;;;;;;;;;;;;23.51;63.73;100140.97;452727;117;922749;-73
2021/07/30 00:33:25;;;;;;;;;;;;;;;23.51;63.79;100124.28;455092;117;923167;-72
2021/07/30 00:34:28;;;;;;;;;;;;;;;23.51;63.83;100127.06;453993;115;922636;-72
2021/07/30 00:35:32;;;;;;;;;;;;;;;23.51;63.81;100129.84;454304;115;922677;-72
2021/07/30 00:36:35;;;;;;;;;;;;;;;23.50;63.87;100128.19;454387;117;924381;-72
2021/07/30 00:37:39;;;;;;;;;;;;;;;23.48;63.87;100136.05;455078;117;922638;-72
2021/07/30 00:38:42;;;;;;;;;;;;;;;23.46;63.93;100140.27;454878;117;922707;-73
2021/07/30 00:39:45;;;;;;;;;;;;;;;23.45;63.99;100144.14;454496;117;921499;-72
2021/07/30 00:40:49;;;;;;;;;;;;;;;23.44;64.05;100140.53;454104;117;921430;-72
2021/07/30 00:41:53;;;;;;;;;;;;;;;23.46;64.03;100151.39;454031;115;921602;-72
2021/07/30 00:42:58;;;;;;;;;;;;;;;23.46;63.97;100151.39;454735;115;921551;-72
2021/07/30 00:44:02;;;;;;;;;;;;;;;23.46;63.93;100146.66;454749;117;921613;-73
2021/07/30 00:45:05;;;;;;;;;;;;;;;23.45;63.93;100153.31;454803;117;921461;-73
2021/07/30 00:46:09;;;;;;;;;;;;;;;23.46;63.94;100152.22;454772;115;921553;-73
2021/07/30 00:47:13;;;;;;;;;;;;;;;23.46;63.95;100160.56;454769;117;921492;-73
2021/07/30 00:48:18;;;;;;;;;;;;;;;23.46;63.95;100156.95;454859;117;923084;-74
2021/07/30 00:49:23;;;;;;;;;;;;;;;23.44;63.91;100156.40;455172;117;922654;-72
2021/07/30 00:50:27;;;;;;;;;;;;;;;23.43;63.95;100152.78;454001;115;922913;-71
2021/07/30 00:51:32;;;;;;;;;;;;;;;23.42;63.94;100151.17;453948;117;921523;-73
2021/07/30 00:52:40;;;;;;;;;;;;;;;23.41;64.00;100149.52;448596;117;922625;-73
2021/07/30 00:53:46;;;;;;;;;;;;;;;23.42;64.03;100153.95;449658;117;921626;-71
2021/07/30 00:54:51;;;;;;;;;;;;;;;23.41;64.08;100143.95;454071;117;922701;-71
2021/07/30 00:55:58;;;;;;;;;;;;;;;23.42;64.09;100148.38;447439;117;921557;-72
2021/07/30 00:57:04;;;;;;;;;;;;;;;23.41;64.10;100146.73;440776;119;922718;-70
2021/07/30 00:58:09;;;;;;;;;;;;;;;23.41;64.11;100146.73;448780;117;923171;-71
2021/07/30 00:59:16;;;;;;;;;;;;;;;23.41;64.12;100155.08;447462;117;921699;-73
2021/07/30 01:00:21;;;;;;;;;;;;;;;23.41;64.16;100151.47;441487;119;921621;-72
2021/07/30 01:01:26;;;;;;;;;;;;;;;23.41;64.15;100155.08;448771;117;922941;-72
2021/07/30 01:02:31;;;;;;;;;;;;;;;23.41;64.13;100152.30;454722;117;922654;-71
2021/07/30 01:03:37;;;;;;;;;;;;;;;23.43;64.11;100154.77;455189;117;921537;-71
2021/07/30 01:04:41;;;;;;;;;;;;;;;23.44;64.13;100157.23;446376;117;921636;-71
2021/07/30 01:05:45;;;;;;;;;;;;;;;23.44;64.14;100154.45;446017;117;921531;-72
2021/07/30 01:06:50;;;;;;;;;;;;;;;23.46;64.14;100156.95;454757;117;921551;-71
2021/07/30 01:07:55;;;;;;;;;;;;;;;23.46;64.06;100155.00;454999;115;923126;-71
2021/07/30 01:08:59;;;;;;;;;;;;;;;23.47;64.07;100158.61;454506;117;922781;-71
2021/07/30 01:10:04;;;;;;;;;;;;;;;23.47;64.09;100153.88;459015;109;921928;-71
2021/07/30 01:11:07;;;;;;;;;;;;;;;23.47;64.03;100158.61;464780;113;921447;-71
2021/07/30 01:12:13;;;;;;;;;;;;;;;23.47;64.04;100158.61;463874;113;922808;-72
2021/07/30 01:13:17;;;;;;;;;;;;;;;23.47;64.04;100153.88;449987;116;922709;-72
2021/07/30 01:14:21;;;;;;;;;;;;;;;23.47;64.06;100159.44;449861;116;923333;-72
2021/07/30 01:15:25;;;;;;;;;;;;;;;23.46;64.07;100162.52;453592;115;922721;-72
2021/07/30 01:16:30;;;;;;;;;;;;;;;23.47;64.11;100169.73;454356;116;922732;-72
2021/07/30 01:17:34;;;;;;;;;;;;;;;23.47;64.14;100164.17;445397;118;922656;-71
2021/07/30 01:18:39;;;;;;;;;;;;;;;23.49;64.13;100167.45;449387;118;922604;-71
2021/07/30 01:19:45;;;;;;;;;;;;;;;23.51;64.10;100165.19;437917;119;922689;-71
2021/07/30 01:20:50;;;;;;;;;;;;;;;23.52;64.00;100169.63;439058;118;921554;-72
2021/07/30 01:21:54;;;;;;;;;;;;;;;23.51;63.91;100160.45;452025;117;923065;-72
2021/07/30 01:22:59;;;;;;;;;;;;;;;23.53;63.87;100166.55;452125;117;922017;-71
2021/07/30 01:24:06;;;;;;;;;;;;;;;23.54;63.87;100167.38;441334;117;923015;-71
2021/07/30 01:25:10;;;;;;;;;;;;;;;23.53;63.83;100157.38;444686;118;921685;-71
2021/07/30 01:26:15;;;;;;;;;;;;;;;23.54;63.80;100159.02;443600;118;921576;-71
2021/07/30 01:27:19;;;;;;;;;;;;;;;23.52;63.81;100156.55;451702;117;921567;-71
2021/07/30 01:28:23;;;;;;;;;;;;;;;23.51;63.82;100154.89;452142;115;921647;-71
2021/07/30 01:29:29;;;;;;;;;;;;;;;23.51;63.88;100154.06;451890;115;921768;-72
2021/07/30 01:30:33;;;;;;;;;;;;;;;23.50;63.88;100157.97;451554;116;921682;-71
2021/07/30 01:31:40;;;;;;;;;;;;;;;23.50;63.98;100156.02;452120;117;921524;-71
2021/07/30 01:32:44;;;;;;;;;;;;;;;23.50;63.92;100161.58;451872;116;921466;-72
2021/07/30 01:33:47;;;;;;;;;;;;;;;23.51;63.95;100154.89;452165;116;921387;-72
2021/07/30 01:34:50;;;;;;;;;;;;;;;23.52;63.96;100153.76;452367;116;921548;-72
2021/07/30 01:35:53;;;;;;;;;;;;;;;23.52;63.94;100148.20;451377;117;921421;-72
2021/07/30 01:36:57;;;;;;;;;;;;;;;23.53;63.95;100149.02;453918;117;921400;-69
2021/07/30 01:38:01;;;;;;;;;;;;;;;23.53;63.95;100144.28;454496;115;922735;-71
2021/07/30 01:39:04;;;;;;;;;;;;;;;23.53;63.96;100141.50;454412;116;922639;-69
2021/07/30 01:40:14;;;;;;;;;;;;;;;23.53;64.03;100144.28;453648;117;922668;-71
2021/07/30 01:41:15;;;;;;;;;;;;;;;23.52;63.98;100133.45;452775;115;923223;-71
2021/07/30 01:42:18;;;;;;;;;;;;;;;23.51;63.98;100140.97;452734;117;922699;-71
2021/07/30 01:43:22;;;;;;;;;;;;;;;23.51;63.99;100131.80;453517;117;922686;-69
2021/07/30 01:44:25;;;;;;;;;;;;;;;23.51;63.98;100137.37;453876;116;923189;-69
2021/07/30 01:45:28;;;;;;;;;;;;;;;23.50;63.98;100142.10;453017;115;923421;-71
2021/07/30 01:46:32;;;;;;;;;;;;;;;23.50;64.05;100144.89;452869;116;922710;-71
2021/07/30 01:47:36;;;;;;;;;;;;;;;23.50;64.08;100142.10;452727;117;922714;-71
2021/07/30 01:48:39;;;;;;;;;;;;;;;23.50;64.07;100141.28;452991;117;923506;-71
2021/07/30 01:49:42;;;;;;;;;;;;;;;23.51;64.09;100138.19;452870;115;922663;-70
2021/07/30 01:50:45;;;;;;;;;;;;;;;23.51;64.08;100129.02;452464;116;922695;-68
2021/07/30 01:51:49;;;;;;;;;;;;;;;23.49;64.04;100129.32;452951;117;921525;-68
2021/07/30 01:52:52;;;;;;;;;;;;;;;23.49;64.11;100137.67;451843;117;922976;-68
2021/07/30 01:53:55;;;;;;;;;;;;;;;23.46;64.19;100138.30;452203;115;921758;-68
2021/07/30 01:54:58;;;;;;;;;;;;;;;23.47;64.24;100136.34;451610;117;923180;-68
2021/07/30 01:56:04;;;;;;;;;;;;;;;23.47;64.24;100139.95;450594;117;923541;-68
2021/07/30 01:57:07;;;;;;;;;;;;;;;23.47;64.23;100142.73;450571;117;922769;-68
2021/07/30 01:58:12;;;;;;;;;;;;;;;23.48;64.25;100144.39;453906;116;922655;-68
2021/07/30 01:59:15;;;;;;;;;;;;;;;23.48;64.27;100140.78;453556;116;922672;-70
2021/07/30 02:00:18;;;;;;;;;;;;;;;23.49;64.30;100136.84;454613;115;922709;-71
2021/07/30 02:01:29;;;;;;;;;;;;;;;23.49;64.27;100139.63;453610;116;922638;-70
2021/07/30 02:02:33;;;;;;;;;;;;;;;23.48;64.30;100138.00;454131;115;922669;-71
2021/07/30 02:03:38;;;;;;;;;;;;;;;23.46;64.34;100138.30;453982;116;922677;-70
2021/07/30 02:04:42;;;;;;;;;;;;;;;23.46;64.37;100141.09;453775;115;922838;-69
2021/07/30 02:05:45;;;;;;;;;;;;;;;23.44;64.41;100132.18;453839;116;923211;-68
2021/07/30 02:06:48;;;;;;;;;;;;;;;23.42;64.49;100139.20;453852;116;923143;-69
2021/07/30 02:07:51;;;;;;;;;;;;;;;23.40;64.57;100133.13;452959;117;923215;-68
2021/07/30 02:08:54;;;;;;;;;;;;;;;23.39;64.67;100140.64;452936;116;922782;-68
2021/07/30 02:09:58;;;;;;;;;;;;;;;23.40;64.72;100144.25;453221;117;922654;-70
2021/07/30 02:11:03;;;;;;;;;;;;;;;23.39;64.78;100139.81;451690;116;921481;-71
2021/07/30 02:12:06;;;;;;;;;;;;;;;23.38;64.79;100144.55;451942;117;921370;-70
2021/07/30 02:14:32;;;;;;;;;;;;;;;23.40;64.82;100147.86;452492;117;921990;-70
2021/07/30 02:15:37;;;;;;;;;;;;;;;23.41;64.78;100143.95;452547;117;921502;-70
2021/07/30 02:16:49;;;;;;;;;;;;;;;23.41;64.77;100143.95;451479;117;921379;-69
2021/07/30 02:17:52;;;;;;;;;;;;;;;23.41;64.73;100148.69;450744;116;921529;-69
2021/07/30 02:18:55;;;;;;;;;;;;;;;23.40;64.72;100155.37;451316;117;921596;-69
2021/07/30 02:19:58;;;;;;;;;;;;;;;23.40;64.77;100152.59;454804;116;921624;-69
2021/07/30 02:21:01;;;;;;;;;;;;;;;23.39;64.86;100153.73;454539;117;921510;-69
2021/07/30 02:22:04;;;;;;;;;;;;;;;23.38;64.89;100149.29;454438;117;921446;-71
2021/07/30 02:23:08;;;;;;;;;;;;;;;23.36;64.89;100146.84;454238;116;921416;-69
2021/07/30 02:24:11;;;;;;;;;;;;;;;23.35;64.94;100150.75;454393;116;921442;-68
2021/07/30 02:25:14;;;;;;;;;;;;;;;23.34;64.97;100151.88;454022;115;921477;-69
2021/07/30 02:26:17;;;;;;;;;;;;;;;23.34;65.05;100149.09;445901;119;922210;-68
2021/07/30 02:27:20;;;;;;;;;;;;;;;23.33;65.00;100146.61;446371;117;922771;-67
2021/07/30 02:28:24;;;;;;;;;;;;;;;23.31;65.02;100146.95;453008;117;921498;-67
2021/07/30 02:29:27;;;;;;;;;;;;;;;23.30;65.08;100142.52;452150;117;922833;-67
2021/07/30 02:30:30;;;;;;;;;;;;;;;23.29;65.13;100136.13;452344;116;923250;-67
2021/07/30 02:31:33;;;;;;;;;;;;;;;23.30;65.14;100145.30;453061;117;922720;-65
2021/07/30 02:32:37;;;;;;;;;;;;;;;23.32;65.25;100139.42;452221;117;922694;-68
2021/07/30 02:33:41;;;;;;;;;;;;;;;23.33;65.21;100133.53;452528;116;923651;-67
2021/07/30 02:34:44;;;;;;;;;;;;;;;23.34;65.22;100137.97;451707;116;922728;-67
2021/07/30 02:35:47;;;;;;;;;;;;;;;23.37;65.16;100144.89;452395;117;923034;-67
2021/07/30 02:36:50;;;;;;;;;;;;;;;23.38;65.18;100138.98;452433;116;923172;-67
2021/07/30 02:37:53;;;;;;;;;;;;;;;23.40;65.11;100141.47;451809;117;923572;-69
2021/07/30 02:38:57;;;;;;;;;;;;;;;23.42;64.99;100141.99;451379;116;922771;-67
2021/07/30 02:40:00;;;;;;;;;;;;;;;23.44;64.87;100136.92;451034;115;922804;-67
2021/07/30 02:41:03;;;;;;;;;;;;;;;23.45;64.73;100144.97;450177;117;922704;-67
2021/07/30 02:42:07;;;;;;;;;;;;;;;23.47;64.64;100145.52;451923;117;923849;-68
2021/07/30 02:43:10;;;;;;;;;;;;;;;23.49;64.51;100146.02;453318;115;922647;-68
2021/07/30 02:44:13;;;;;;;;;;;;;;;23.51;64.27;100148.50;453571;116;922704;-67
2021/07/30 02:45:16;;;;;;;;;;;;;;;23.53;64.17;100154.59;453225;117;923143;-67
2021/07/30 02:46:20;;;;;;;;;;;;;;;23.54;64.06;100148.69;453748;117;922683;-68
2021/07/30 02:47:23;;;;;;;;;;;;;;;23.57;64.01;100150.04;452856;116;922663;-68
2021/07/30 02:48:26;;;;;;;;;;;;;;;23.56;64.04;100151.17;453278;116;922693;-67
2021/07/30 02:49:29;;;;;;;;;;;;;;;23.57;64.01;100150.04;452979;117;923077;-67
2021/07/30 02:50:32;;;;;;;;;;;;;;;23.58;64.06;100144.17;452991;115;922938;-67
2021/07/30 02:51:36;;;;;;;;;;;;;;;23.58;63.97;100160.04;452972;117;923590;-67
2021/07/30 02:52:39;;;;;;;;;;;;;;;23.58;63.97;100158.09;452897;116;922727;-67
2021/07/30 02:53:42;;;;;;;;;;;;;;;23.58;64.00;100160.87;452766;116;923961;-68
2021/07/30 02:54:45;;;;;;;;;;;;;;;23.57;64.05;100159.22;453030;117;921568;-68
2021/07/30 02:55:49;;;;;;;;;;;;;;;23.56;64.10;100160.34;452034;116;921427;-68
2021/07/30 02:56:52;;;;;;;;;;;;;;;23.57;64.07;100158.39;450736;117;922740;-67
2021/07/30 02:57:55;;;;;;;;;;;;;;;23.58;64.05;100172.00;451400;117;922677;-67
2021/07/30 02:58:59;;;;;;;;;;;;;;;23.56;64.20;100168.69;451773;116;922771;-67
2021/07/30 03:00:03;;;;;;;;;;;;;;;23.55;64.21;100172.61;450333;116;923119;-69
2021/07/30 03:01:06;;;;;;;;;;;;;;;23.54;64.25;100170.16;453027;116;922629;-67
2021/07/30 03:02:09;;;;;;;;;;;;;;;23.53;64.23;100168.50;454170;117;921952;-67
2021/07/30 03:03:13;;;;;;;;;;;;;;;23.54;64.23;100167.38;453073;117;923130;-69
2021/07/30 03:04:16;;;;;;;;;;;;;;;23.55;64.24;100175.39;452875;116;922749;-67
2021/07/30 03:05:20;;;;;;;;;;;;;;;23.57;64.16;100175.09;453213;115;922656;-67
2021/07/30 03:06:23;;;;;;;;;;;;;;;23.56;64.11;100168.69;453207;117;922672;-67
2021/07/30 03:07:26;;;;;;;;;;;;;;;23.56;63.98;100176.22;452809;117;922689;-68
2021/07/30 03:08:29;;;;;;;;;;;;;;;23.55;64.03;100166.21;452355;116;922689;-68
2021/07/30 03:09:33;;;;;;;;;;;;;;;23.56;64.08;100168.69;452360;116;922700;-67
2021/07/30 03:10:36;;;;;;;;;;;;;;;23.56;64.00;100165.08;451710;116;921650;-67
2021/07/30 03:11:39;;;;;;;;;;;;;;;23.58;63.99;100165.61;439520;121;921569;-68
2021/07/30 03:12:42;;;;;;;;;;;;;;;23.58;64.00;100168.39;439474;119;921548;-67
2021/07/30 03:13:46;;;;;;;;;;;;;;;23.58;64.04;100177.57;440172;119;921510;-68
2021/07/30 03:14:49;;;;;;;;;;;;;;;23.60;64.02;100166.92;439914;119;921463;-68
2021/07/30 03:15:53;;;;;;;;;;;;;;;23.61;63.99;100164.97;439530;121;921422;-68
2021/07/30 03:16:56;;;;;;;;;;;;;;;23.61;64.06;100163.02;440035;121;921835;-67
2021/07/30 03:18:00;;;;;;;;;;;;;;;23.62;63.77;100173.02;439489;119;921990;-67
2021/07/30 03:19:03;;;;;;;;;;;;;;;23.61;63.66;100170.54;438455;119;921496;-67
2021/07/30 03:20:06;;;;;;;;;;;;;;;23.60;63.67;100169.71;438961;119;921937;-67
2021/07/30 03:21:09;;;;;;;;;;;;;;;23.59;63.65;100168.09;440203;119;921506;-67
2021/07/30 03:22:13;;;;;;;;;;;;;;;23.59;63.71;100170.88;441706;119;921518;-67
2021/07/30 03:23:16;;;;;;;;;;;;;;;23.59;63.70;100161.70;441841;121;921429;-67
2021/07/30 03:24:19;;;;;;;;;;;;;;;23.58;63.65;100163.66;440881;119;921480;-67
2021/07/30 03:25:22;;;;;;;;;;;;;;;23.59;63.64;100156.95;440945;119;924200;-68
2021/07/30 03:26:25;;;;;;;;;;;;;;;23.60;63.61;100157.75;440401;119;922692;-67
2021/07/30 03:27:28;;;;;;;;;;;;;;;23.60;63.66;100158.58;440042;119;922267;-66
2021/07/30 03:28:32;;;;;;;;;;;;;;;23.62;63.70;100161.89;440648;121;922597;-67
2021/07/30 03:29:35;;;;;;;;;;;;;;;23.62;63.66;100167.45;440321;119;922755;-67
2021/07/30 03:30:38;;;;;;;;;;;;;;;23.63;63.60;100169.11;440218;119;922708;-67
2021/07/30 03:31:42;;;;;;;;;;;;;;;23.63;63.56;100169.11;439859;119;922644;-68
2021/07/30 03:32:45;;;;;;;;;;;;;;;23.64;63.59;100167.15;440766;119;922716;-67
2021/07/30 03:33:48;;;;;;;;;;;;;;;23.65;63.50;100169.59;439830;120;922711;-67
2021/07/30 03:34:52;;;;;;;;;;;;;;;23.67;63.50;100166.52;440445;119;923147;-69
2021/07/30 03:35:55;;;;;;;;;;;;;;;23.69;63.43;100161.47;439798;119;922701;-67
2021/07/30 03:37:00;;;;;;;;;;;;;;;23.72;63.38;100165.57;439380;119;923621;-67
2021/07/30 03:38:03;;;;;;;;;;;;;;;23.73;63.45;100162.48;440189;119;922953;-66
2021/07/30 03:39:06;;;;;;;;;;;;;;;23.75;63.45;100153.83;439515;119;922689;-67
2021/07/30 03:40:10;;;;;;;;;;;;;;;23.76;63.51;100155.48;439034;120;922713;-67
2021/07/30 03:41:13;;;;;;;;;;;;;;;23.77;63.53;100154.32;438394;120;922687;-67
2021/07/30 03:42:16;;;;;;;;;;;;;;;23.79;63.54;100165.98;438292;119;923132;-68
2021/07/30 03:43:20;;;;;;;;;;;;;;;23.80;63.57;100160.11;440997;120;922678;-66
2021/07/30 03:44:23;;;;;;;;;;;;;;;23.82;63.37;100159.80;440703;120;922714;-67
2021/07/30 03:45:26;;;;;;;;;;;;;;;23.84;63.26;100169.47;441100;119;923133;-67
2021/07/30 03:46:29;;;;;;;;;;;;;;;23.85;63.10;100161.95;440563;119;923122;-69
2021/07/30 03:47:33;;;;;;;;;;;;;;;23.86;62.97;100169.17;440546;119;923121;-67
2021/07/30 03:48:36;;;;;;;;;;;;;;;23.86;62.92;100169.17;440737;120;922738;-66
2021/07/30 03:49:41;;;;;;;;;;;;;;;23.87;62.89;100160.48;440915;119;922617;-67
2021/07/30 03:50:44;;;;;;;;;;;;;;;23.87;62.89;100160.48;440246;119;922406;-68
2021/07/30 03:51:47;;;;;;;;;;;;;;;23.90;62.92;100171.01;440069;120;922696;-68
2021/07/30 03:52:50;;;;;;;;;;;;;;;23.91;62.90;100174.62;440075;119;922732;-67
2021/07/30 03:53:54;;;;;;;;;;;;;;;23.92;62.84;100173.48;440049;119;923341;-69
2021/07/30 03:54:57;;;;;;;;;;;;;;;23.94;62.75;100172.02;440539;119;922746;-67
2021/07/30 03:56:00;;;;;;;;;;;;;;;23.95;62.74;100172.84;439661;119;922688;-68
2021/07/30 03:57:04;;;;;;;;;;;;;;;23.96;62.68;100178.11;439680;119;921622;-67
2021/07/30 03:58:08;;;;;;;;;;;;;;;23.97;62.67;100184.52;439212;119;921564;-68
2021/07/30 03:59:11;;;;;;;;;;;;;;;23.99;62.71;100173.86;439759;120;922592;-67
2021/07/30 04:00:15;;;;;;;;;;;;;;;24.00;62.73;100175.52;440334;119;922560;-68
2021/07/30 04:01:18;;;;;;;;;;;;;;;24.01;62.72;100171.59;438137;119;922665;-67
2021/07/30 04:02:21;;;;;;;;;;;;;;;24.03;62.72;100177.69;438331;119;922666;-67
2021/07/30 04:03:25;;;;;;;;;;;;;;;24.03;62.68;100175.73;441293;120;922635;-68
2021/07/30 04:04:28;;;;;;;;;;;;;;;24.05;62.74;100169.83;441840;119;922689;-68
2021/07/30 04:05:31;;;;;;;;;;;;;;;24.06;62.71;100175.09;440645;119;923257;-68
2021/07/30 04:06:34;;;;;;;;;;;;;;;24.10;62.72;100181.67;440236;119;923168;-67
2021/07/30 04:07:37;;;;;;;;;;;;;;;24.14;62.71;100189.42;440862;119;921690;-70
2021/07/30 04:08:41;;;;;;;;;;;;;;;24.17;62.59;100177.62;441034;121;921422;-69
2021/07/30 04:09:45;;;;;;;;;;;;;;;24.20;62.54;100183.45;440984;119;921967;-68
2021/07/30 04:10:48;;;;;;;;;;;;;;;24.24;62.47;100181.67;440484;119;921477;-68
2021/07/30 04:11:51;;;;;;;;;;;;;;;24.29;62.39;100181.55;440135;117;921463;-67
2021/07/30 04:12:54;;;;;;;;;;;;;;;24.31;62.21;100170.92;439829;119;921709;-67
2021/07/30 04:13:57;;;;;;;;;;;;;;;24.35;61.92;100174.72;440395;121;921752;-67
2021/07/30 04:15:00;;;;;;;;;;;;;;;24.38;61.66;100182.42;441099;119;921920;-67
2021/07/30 04:16:04;;;;;;;;;;;;;;;24.42;61.42;100185.42;439577;121;923201;-67
2021/07/30 04:17:08;;;;;;;;;;;;;;;24.43;61.20;100181.47;439393;121;922721;-67
2021/07/30 04:18:11;;;;;;;;;;;;;;;24.46;61.05;100180.86;439408;120;922658;-67
2021/07/30 04:19:14;;;;;;;;;;;;;;;24.49;60.76;100185.78;439410;119;922709;-67
2021/07/30 04:20:18;;;;;;;;;;;;;;;24.50;60.72;100177.11;439098;119;923062;-67
2021/07/30 04:21:21;;;;;;;;;;;;;;;24.53;60.66;100175.67;439018;121;922655;-67
2021/07/30 04:22:24;;;;;;;;;;;;;;;24.56;60.56;100182.56;441627;120;922688;-66
2021/07/30 04:23:28;;;;;;;;;;;;;;;24.58;60.59;100177.50;440417;119;924625;-67
2021/07/30 04:24:31;;;;;;;;;;;;;;;24.61;60.51;100174.06;440521;120;922638;-67
2021/07/30 04:25:36;;;;;;;;;;;;;;;24.63;60.46;100171.80;440497;120;922690;-68
2021/07/30 04:26:39;;;;;;;;;;;;;;;24.67;60.23;100172.80;440238;119;922724;-68
2021/07/30 04:27:42;;;;;;;;;;;;;;;24.68;60.03;100171.66;439295;119;922777;-67
2021/07/30 04:28:45;;;;;;;;;;;;;;;24.69;59.93;100165.77;440414;119;922938;-70
2021/07/30 04:29:49;;;;;;;;;;;;;;;24.72;59.84;100175.45;440082;121;922711;-67
2021/07/30 04:30:52;;;;;;;;;;;;;;;24.74;59.58;100174.00;439726;121;922805;-68
2021/07/30 04:31:56;;;;;;;;;;;;;;;24.76;59.32;100174.48;439324;119;923600;-68
2021/07/30 04:32:59;;;;;;;;;;;;;;;24.78;59.22;100168.59;440169;121;922647;-67
2021/07/30 04:34:02;;;;;;;;;;;;;;;24.81;59.19;100162.41;439967;120;923158;-68
2021/07/30 04:35:05;;;;;;;;;;;;;;;24.83;59.07;100168.46;440744;119;922769;-67
2021/07/30 04:36:16;;;;;;;;;;;;;;;24.85;58.97;100167.02;439669;119;922772;-71
2021/07/30 04:37:20;;;;;;;;;;;;;;;24.88;59.00;100157.20;440054;120;923130;-67
2021/07/30 04:38:23;;;;;;;;;;;;;;;24.89;58.83;100164.43;439473;120;922708;-68
2021/07/30 04:39:26;;;;;;;;;;;;;;;24.90;58.76;100164.12;439736;119;924193;-68
2021/07/30 04:40:29;;;;;;;;;;;;;;;24.91;58.81;100164.94;439486;119;922673;-68
2021/07/30 04:41:33;;;;;;;;;;;;;;;24.93;58.76;100168.22;439935;121;923822;-67
2021/07/30 04:42:36;;;;;;;;;;;;;;;24.95;58.74;100167.91;440622;120;922672;-67
2021/07/30 04:43:40;;;;;;;;;;;;;;;24.95;58.66;100165.94;440982;119;922391;-67
2021/07/30 04:44:43;;;;;;;;;;;;;;;24.96;58.69;100156.44;441184;119;922631;-67
2021/07/30 04:45:46;;;;;;;;;;;;;;;24.96;58.69;100163.98;440446;120;924148;-73
2021/07/30 04:46:49;;;;;;;;;;;;;;;24.97;58.65;100168.42;440875;120;923114;-71
2021/07/30 04:47:53;;;;;;;;;;;;;;;24.97;58.65;100157.27;440978;119;922659;-67
2021/07/30 04:48:56;;;;;;;;;;;;;;;24.97;58.60;100160.05;441249;120;923257;-72
2021/07/30 04:50:00;;;;;;;;;;;;;;;24.97;58.50;100157.27;440573;121;922683;-68
2021/07/30 04:51:03;;;;;;;;;;;;;;;24.98;58.48;100154.12;440808;119;922760;-67
2021/07/30 04:52:06;;;;;;;;;;;;;;;24.99;58.30;100158.56;440720;119;922699;-68
2021/07/30 04:53:09;;;;;;;;;;;;;;;24.98;58.10;100151.34;440495;119;922554;-67
2021/07/30 04:54:12;;;;;;;;;;;;;;;24.98;58.20;100147.72;440636;120;924298;-67
2021/07/30 04:55:16;;;;;;;;;;;;;;;24.99;58.24;100150.20;440010;121;922667;-67
2021/07/30 04:56:19;;;;;;;;;;;;;;;24.99;58.30;100150.20;439132;119;922628;-68
2021/07/30 04:57:24;;;;;;;;;;;;;;;25.00;58.30;100142.66;438717;119;923279;-68
2021/07/30 04:58:28;;;;;;;;;;;;;;;25.00;58.36;100143.48;439274;119;921593;-69
2021/07/30 04:59:31;;;;;;;;;;;;;;;25.01;58.43;100136.77;439875;121;921388;-68
2021/07/30 05:00:35;;;;;;;;;;;;;;;25.02;58.33;100141.20;439795;119;921431;-70
2021/07/30 05:01:42;;;;;;;;;;;;;;;25.03;58.34;100139.25;439486;119;921653;-69
2021/07/30 05:02:45;;;;;;;;;;;;;;;25.04;58.32;100136.11;439090;119;921969;-69
2021/07/30 05:03:49;;;;;;;;;;;;;;;25.06;58.34;100146.95;441603;119;921583;-68
2021/07/30 05:04:56;;;;;;;;;;;;;;;25.08;58.37;100141.89;453113;116;921312;-68
2021/07/30 05:05:59;;;;;;;;;;;;;;;25.10;58.43;100151.56;445127;118;922535;-69
2021/07/30 05:07:03;;;;;;;;;;;;;;;25.13;58.54;100155.70;444438;119;922584;-68
2021/07/30 05:08:07;;;;;;;;;;;;;;;25.15;58.49;100147.80;438162;120;922623;-68
2021/07/30 05:09:11;;;;;;;;;;;;;;;25.18;58.50;100150.80;443833;118;922526;-68
2021/07/30 05:10:14;;;;;;;;;;;;;;;25.20;58.62;100159.64;443439;118;922299;-67
2021/07/30 05:11:17;;;;;;;;;;;;;;;25.22;58.47;100154.58;444085;119;922619;-68
2021/07/30 05:12:21;;;;;;;;;;;;;;;25.25;58.25;100158.70;454107;117;923273;-67
2021/07/30 05:13:25;;;;;;;;;;;;;;;25.26;58.02;100158.36;454242;116;922582;-69
2021/07/30 05:14:28;;;;;;;;;;;;;;;25.26;57.93;100163.94;455295;115;922683;-70
2021/07/30 05:15:31;;;;;;;;;;;;;;;25.28;57.94;100163.63;454694;115;922768;-69
2021/07/30 05:16:35;;;;;;;;;;;;;;;25.27;57.87;100157.22;455084;117;922833;-70
2021/07/30 05:17:40;;;;;;;;;;;;;;;25.28;57.77;100161.66;454756;115;922721;-69
2021/07/30 05:18:43;;;;;;;;;;;;;;;25.29;57.68;100165.28;455194;115;923439;-71
2021/07/30 05:19:47;;;;;;;;;;;;;;;25.28;57.66;100153.28;454369;117;922686;-72
2021/07/30 05:20:50;;;;;;;;;;;;;;;25.29;57.64;100157.73;454429;115;922664;-71
2021/07/30 05:21:53;;;;;;;;;;;;;;;25.30;57.59;100152.97;453162;117;924218;-70
2021/07/30 05:22:57;;;;;;;;;;;;;;;25.30;57.62;100150.19;453924;116;922674;-71
2021/07/30 05:24:00;;;;;;;;;;;;;;;25.30;57.63;100156.59;453569;116;922896;-66
2021/07/30 05:25:04;;;;;;;;;;;;;;;25.31;57.71;100158.21;452795;115;922598;-67